International Virtual Aviation Organisation

Eastern Europe and Northern Asia MCD

 
UHHH 131800Z 25006MPS 9999 FEW040CB M04/M11 Q1001 R23R/290045 NOSIG RMK QFE745/0993
QNH:(hPa/inHg/mmHg)1001 / 29.56 / 751
QFE:(hPa/inHg/mmHg)992 / 29.29 / 744
Temperature-4
Dew Point-11
Visibility> 10000
Weather
Cloud CoverFEW (4000);
Transition Height900 m./3200 ft.
Transition LevelFL50
SQUAWK